Anantapur, India
Current Conditions -  °F | °C
As of 1:30 PM on Wednesday 22 Oct 2014 (Local Time) from VOBL Reporting Station
Scattered Clouds Scattered Clouds  
Wind Chill: 88°   Ceiling: Unl
Heat Index: 94°   Visibility: 5mi
Dew Point: 72°   Wind: 12mph
Humidity: 58%   Direction: 120°ESE
Pressure: 30"   Gusts: NA
Location:  14.68°N, 77.62°E
Report Text: VOBL 220830Z 12010KT 8000 SCT012 SCT020 31/22 Q1016 NOSIG
Loading
Personal Weather Stations






























Interactive Weather Map
Tropical Storm Tracking
New forecast layout! Learn more

10-Day Weather Forecast

Advertisements
Track Severe Weather on mobile